Time;durP1;ratioP1;P1;durP2;ratioP2;P2;SDS_P1;SDS_P2;PMS_P1;PMS_P2;Temp;Humidity;BMP_temperature;BMP_pressure;BME280_temperature;BME280_humidity;BME280_pressure;Samples;Min_cycle;Max_cycle;Signal;HPM_P1;HPM_P2
2021/08/14 00:01:24;;;;;;;3.00;2.13;;;;;;;18.24;65.22;101297.22;5051393;28;20212;-77
2021/08/14 00:03:50;;;;;;;2.63;2.20;;;;;;;18.20;66.07;101277.97;5051527;28;20236;-78
2021/08/14 00:06:16;;;;;;;3.83;2.27;;;;;;;18.09;65.54;101301.28;5051197;28;20205;-77
2021/08/14 00:08:45;;;;;;;3.87;2.50;;;;;;;18.08;66.23;101273.16;5050925;28;20223;-77
2021/08/14 00:11:11;;;;;;;4.17;2.17;;;;;;;18.12;65.90;101272.13;5051235;28;20295;-79
2021/08/14 00:13:38;;;;;;;3.10;2.70;;;;;;;18.12;66.52;101250.97;5050392;28;20730;-77
2021/08/14 00:16:05;;;;;;;4.83;2.43;;;;;;;18.06;66.28;101257.34;5051402;28;20729;-77
2021/08/14 00:18:32;;;;;;;4.10;2.67;;;;;;;18.06;65.83;101273.19;5051188;28;20219;-78
2021/08/14 00:20:58;;;;;;;4.17;2.00;;;;;;;18.08;65.79;101277.56;5051111;28;20349;-80
2021/08/14 00:23:24;;;;;;;5.27;3.00;;;;;;;18.01;66.24;101263.72;5050847;28;20227;-78
2021/08/14 00:25:55;;;;;;;3.63;2.23;;;;;;;18.00;65.28;101291.94;5049838;28;20581;-77
2021/08/14 00:28:21;;;;;;;5.40;2.27;;;;;;;18.00;65.60;101281.34;5049945;28;20207;-77
2021/08/14 00:30:47;;;;;;;2.43;2.00;;;;;;;17.93;66.36;101249.94;5050723;28;20620;-78
2021/08/14 00:33:14;;;;;;;3.97;2.30;;;;;;;17.93;66.26;101264.00;5050813;28;20226;-77
2021/08/14 00:35:40;;;;;;;2.70;2.37;;;;;;;17.93;66.39;101244.66;5050746;28;20208;-77
2021/08/14 00:38:07;;;;;;;4.33;1.97;;;;;;;17.86;66.86;101230.81;5051262;28;20259;-79
2021/08/14 00:40:33;;;;;;;3.43;2.37;;;;;;;17.86;66.95;101225.53;5050925;28;20269;-77
2021/08/14 00:43:02;;;;;;;3.10;2.20;;;;;;;17.82;67.44;101206.25;5051179;28;20257;-80
2021/08/14 00:45:29;;;;;;;3.97;2.37;;;;;;;17.80;66.93;101212.50;5052318;28;20228;-81
2021/08/14 00:47:55;;;;;;;3.03;2.20;;;;;;;17.71;66.94;101226.91;5051108;28;20619;-78
2021/08/14 00:50:22;;;;;;;4.83;2.70;;;;;;;17.69;67.77;101197.06;5050924;28;20208;-79
2021/08/14 00:52:48;;;;;;;2.50;2.30;;;;;;;17.65;67.71;101198.09;5050922;28;20285;-80
2021/08/14 00:55:15;;;;;;;3.90;2.23;;;;;;;17.67;67.52;101188.31;5051125;28;20200;-80
2021/08/14 00:57:42;;;;;;;3.17;2.00;;;;;;;17.70;67.90;101182.94;5050543;28;20202;-77
2021/08/14 01:00:12;;;;;;;3.13;2.20;;;;;;;17.64;68.10;101172.59;5050356;28;20231;-78
2021/08/14 01:02:38;;;;;;;2.30;2.07;;;;;;;17.64;69.05;101148.81;5049147;28;20365;-78
2021/08/14 01:05:06;;;;;;;3.00;2.10;;;;;;;17.56;69.24;101121.84;5050338;28;20231;-78
2021/08/14 01:07:32;;;;;;;3.03;2.57;;;;;;;17.52;68.76;101154.56;5050284;28;20207;-77
2021/08/14 01:09:59;;;;;;;3.33;1.90;;;;;;;17.53;69.03;101141.31;5050592;28;20612;-78
2021/08/14 01:12:25;;;;;;;4.87;2.57;;;;;;;17.50;69.09;101130.84;5050055;28;20201;-77
2021/08/14 01:14:52;;;;;;;5.13;2.23;;;;;;;17.54;68.72;101150.06;5050694;28;20759;-79
2021/08/14 01:17:21;;;;;;;3.40;2.10;;;;;;;17.51;68.36;101166.03;5050027;28;20680;-77
2021/08/14 01:19:48;;;;;;;3.43;2.10;;;;;;;17.45;68.47;101156.56;5050474;28;20360;-78
2021/08/14 01:22:16;;;;;;;2.67;2.30;;;;;;;17.43;68.54;101155.75;5049912;28;20212;-78
2021/08/14 01:24:44;;;;;;;2.60;2.20;;;;;;;17.39;68.98;101133.03;5049866;28;20240;-77
2021/08/14 01:27:12;;;;;;;5.03;2.43;;;;;;;17.38;69.14;101140.09;5050032;28;20216;-78
2021/08/14 01:29:39;;;;;;;2.10;1.87;;;;;;;17.33;69.62;101131.47;5049015;28;20207;-80
2021/08/14 01:32:07;;;;;;;2.60;2.27;;;;;;;17.30;69.99;101105.19;5049905;28;20215;-77
2021/08/14 01:34:34;;;;;;;2.63;1.80;;;;;;;17.31;69.82;101106.91;5050076;28;20239;-79
2021/08/14 01:37:00;;;;;;;5.37;2.27;;;;;;;17.30;69.87;101102.53;5050097;28;20212;-78
2021/08/14 01:39:27;;;;;;;3.60;2.60;;;;;;;17.28;70.09;101104.38;5052480;28;20226;-77
2021/08/14 01:41:55;;;;;;;5.03;2.47;;;;;;;17.23;70.83;101077.31;5053534;28;20759;-77
2021/08/14 01:44:23;;;;;;;3.63;2.63;;;;;;;17.20;71.13;101075.63;5051880;28;20643;-77
2021/08/14 01:46:49;;;;;;;2.83;2.53;;;;;;;17.21;72.12;101045.72;5052500;28;20277;-78
2021/08/14 01:49:15;;;;;;;3.90;2.70;;;;;;;17.15;71.50;101053.84;5052480;28;20735;-78
2021/08/14 01:51:42;;;;;;;3.50;2.40;;;;;;;17.10;71.55;101049.66;5052525;28;20203;-78
2021/08/14 01:54:08;;;;;;;5.43;2.73;;;;;;;17.03;71.80;101049.88;5052572;28;20223;-77
2021/08/14 01:56:35;;;;;;;4.33;2.00;;;;;;;17.05;71.46;101063.88;5052373;28;20237;-77
2021/08/14 01:59:01;;;;;;;3.93;3.07;;;;;;;17.07;71.08;101084.94;5052377;28;20207;-81
2021/08/14 02:01:29;;;;;;;5.43;2.40;;;;;;;17.10;71.94;101070.75;5051843;28;20207;-78
2021/08/14 02:03:57;;;;;;;3.77;2.60;;;;;;;17.03;71.63;101064.84;5052800;28;20700;-79
2021/08/14 02:06:24;;;;;;;4.73;2.37;;;;;;;17.05;71.03;101069.16;5052883;28;20224;-77
2021/08/14 02:08:51;;;;;;;4.63;2.40;;;;;;;17.05;71.16;101077.06;5051871;28;20263;-78
2021/08/14 02:11:20;;;;;;;3.90;2.63;;;;;;;17.02;71.39;101069.25;5053491;28;20277;-77
2021/08/14 02:13:49;;;;;;;6.17;2.67;;;;;;;16.98;71.99;101046.53;5052808;28;20697;-77
2021/08/14 02:16:15;;;;;;;6.27;2.50;;;;;;;16.98;71.90;101043.91;5053032;28;20223;-77
2021/08/14 02:18:43;;;;;;;4.27;2.30;;;;;;;16.99;71.78;101058.81;5052899;28;20215;-78
2021/08/14 02:21:10;;;;;;;3.60;2.87;;;;;;;16.94;71.69;101052.84;5051801;28;20211;-77
2021/08/14 02:23:37;;;;;;;7.57;2.43;;;;;;;16.94;71.75;101060.75;5052754;28;20225;-77
2021/08/14 02:26:05;;;;;;;4.90;2.83;;;;;;;16.90;71.78;101040.69;5051707;28;20227;-79
2021/08/14 02:28:31;;;;;;;9.57;2.73;;;;;;;16.85;71.77;101043.47;5051930;28;20293;-77
2021/08/14 02:30:59;;;;;;;6.00;2.67;;;;;;;16.86;71.83;101046.97;5051822;28;20252;-78
2021/08/14 02:33:25;;;;;;;5.43;2.60;;;;;;;16.83;71.83;101040.03;5051865;28;20260;-77
2021/08/14 02:35:53;;;;;;;5.67;2.57;;;;;;;16.84;71.99;101033.84;5052243;28;20202;-77
2021/08/14 02:38:19;;;;;;;4.37;2.47;;;;;;;16.82;72.05;101029.53;5052108;28;20262;-77
2021/08/14 02:40:47;;;;;;;2.63;2.10;;;;;;;16.84;72.86;101011.88;5051897;28;20219;-77
2021/08/14 02:43:14;;;;;;;4.07;2.70;;;;;;;16.74;72.16;101023.66;5051885;28;20710;-79
2021/08/14 02:45:41;;;;;;;7.40;2.57;;;;;;;16.70;72.58;101003.59;5052033;28;20293;-78
2021/08/14 02:48:08;;;;;;;5.87;2.93;;;;;;;16.66;72.60;101000.19;5051983;28;20202;-77
2021/08/14 02:50:35;;;;;;;2.47;2.27;;;;;;;16.64;72.92;101002.88;5050624;28;20272;-80
2021/08/14 02:53:04;;;;;;;3.93;2.60;;;;;;;16.63;72.84;100990.63;5051678;28;20225;-77
2021/08/14 02:55:30;;;;;;;5.53;2.87;;;;;;;16.59;72.80;101002.19;5051791;28;20255;-78
2021/08/14 02:57:56;;;;;;;2.43;2.03;;;;;;;16.59;72.87;100996.03;5050553;28;20210;-77
2021/08/14 03:00:23;;;;;;;3.27;2.13;;;;;;;16.59;72.80;101009.22;5050990;28;20209;-77
2021/08/14 03:02:49;;;;;;;4.40;2.73;;;;;;;16.61;72.80;100996.84;5052417;28;20231;-77
2021/08/14 03:05:16;;;;;;;3.80;2.93;;;;;;;16.59;74.00;100970.56;5051705;28;20248;-77
2021/08/14 03:07:42;;;;;;;4.20;2.37;;;;;;;16.60;73.33;100971.41;5051580;28;20218;-78
2021/08/14 03:10:11;;;;;;;5.87;2.57;;;;;;;16.48;73.48;100978.81;5051513;28;20210;-77
2021/08/14 03:12:37;;;;;;;4.33;2.60;;;;;;;16.49;73.58;100971.81;5051193;28;20215;-77
2021/08/14 03:15:05;;;;;;;4.83;2.30;;;;;;;16.48;73.63;100972.72;5052335;28;20201;-78
2021/08/14 03:17:31;;;;;;;3.87;2.50;;;;;;;16.43;73.83;100962.34;5051194;28;20244;-78
2021/08/14 03:19:58;;;;;;;3.97;2.60;;;;;;;16.43;73.83;100964.97;5050629;28;20260;-77
2021/08/14 03:22:24;;;;;;;3.37;2.80;;;;;;;16.38;74.01;100974.78;5051180;28;20202;-78
2021/08/14 03:24:51;;;;;;;2.43;2.17;;;;;;;16.37;74.32;100957.28;5050067;28;20249;-77
2021/08/14 03:27:19;;;;;;;3.83;2.93;;;;;;;16.34;74.55;100960.00;5050764;28;20273;-78
2021/08/14 03:29:45;;;;;;;3.30;2.60;;;;;;;16.34;74.02;100982.88;5050756;28;20270;-78
2021/08/14 03:32:12;;;;;;;3.17;2.47;;;;;;;16.34;74.19;100965.28;5050289;28;20231;-79
2021/08/14 03:34:38;;;;;;;3.57;2.20;;;;;;;16.34;73.83;100957.38;5050985;28;20223;-79
2021/08/14 03:37:05;;;;;;;5.67;2.60;;;;;;;16.34;73.76;100972.34;5050355;28;20695;-77
2021/08/14 03:39:33;;;;;;;5.30;2.80;;;;;;;16.35;74.22;100968.75;5051327;28;20217;-79
2021/08/14 03:42:00;;;;;;;5.40;2.53;;;;;;;16.22;73.55;100997.31;5049543;28;20241;-78
2021/08/14 03:44:28;;;;;;;2.77;2.43;;;;;;;16.21;74.66;100943.78;5051768;28;20221;-77
2021/08/14 03:46:55;;;;;;;3.47;2.63;;;;;;;16.23;74.62;100936.69;5049943;28;20274;-78
2021/08/14 03:49:21;;;;;;;4.47;2.77;;;;;;;16.19;74.89;100926.28;5050680;28;20218;-78
2021/08/14 03:51:48;;;;;;;4.50;2.73;;;;;;;16.20;75.14;100920.13;5051016;28;20229;-80
2021/08/14 03:54:14;;;;;;;2.40;2.17;;;;;;;16.15;75.64;100909.72;5049384;28;20731;-79
2021/08/14 03:56:41;;;;;;;4.17;2.53;;;;;;;16.16;75.31;100900.06;5050322;28;20243;-78
2021/08/14 03:59:07;;;;;;;5.43;2.67;;;;;;;16.16;75.37;100911.47;5048984;28;20202;-78
2021/08/14 04:01:35;;;;;;;3.67;2.67;;;;;;;16.14;75.18;100908.03;5049613;28;20210;-77
2021/08/14 04:04:01;;;;;;;4.87;2.57;;;;;;;16.17;75.01;100925.47;5049714;28;20245;-78
2021/08/14 04:06:28;;;;;;;3.90;2.73;;;;;;;16.14;75.54;100915.06;5050508;28;20239;-77
2021/08/14 04:08:54;;;;;;;6.23;2.47;;;;;;;16.13;75.63;100915.97;5049564;28;20676;-77
2021/08/14 04:11:20;;;;;;;4.87;2.53;;;;;;;16.14;75.74;100904.53;5050733;28;20215;-79
2021/08/14 04:13:47;;;;;;;4.17;2.80;;;;;;;16.14;75.30;100918.56;5050444;28;20240;-78
2021/08/14 04:16:13;;;;;;;5.07;2.87;;;;;;;16.15;74.89;100927.31;5050860;28;20224;-78
2021/08/14 04:18:41;;;;;;;3.33;2.53;;;;;;;16.19;75.32;100934.19;5051091;28;20210;-79
2021/08/14 04:21:08;;;;;;;3.20;2.27;;;;;;;16.21;75.51;100924.47;5049867;28;20213;-79
2021/08/14 04:23:34;;;;;;;3.20;2.47;;;;;;;16.24;75.27;100934.91;5050050;28;20230;-78
2021/08/14 04:26:01;;;;;;;6.47;2.43;;;;;;;16.25;74.88;100941.88;5049650;28;20258;-78
2021/08/14 04:28:27;;;;;;;5.63;2.30;;;;;;;16.21;75.28;100937.63;5049567;28;20201;-77
2021/08/14 04:30:54;;;;;;;4.17;2.47;;;;;;;16.25;74.97;100939.25;5050205;28;20202;-79
2021/08/14 04:33:20;;;;;;;4.93;2.53;;;;;;;16.28;74.39;100978.66;5049836;28;20235;-78
2021/08/14 04:35:49;;;;;;;4.07;2.37;;;;;;;16.33;74.64;100955.63;5050185;28;20209;-80
2021/08/14 04:38:15;;;;;;;3.87;2.40;;;;;;;16.32;74.15;100961.84;5049623;28;20666;-78
2021/08/14 04:40:42;;;;;;;4.43;2.80;;;;;;;16.28;74.64;100953.19;5048594;28;20259;-78
2021/08/14 04:43:08;;;;;;;5.17;2.50;;;;;;;16.27;75.29;100927.75;5051650;28;20230;-78
2021/08/14 04:45:35;;;;;;;4.10;2.40;;;;;;;16.31;75.82;100904.78;5050662;28;21276;-77
2021/08/14 04:48:01;;;;;;;3.90;2.63;;;;;;;16.30;75.10;100926.78;5049619;28;20266;-77
2021/08/14 04:50:28;;;;;;;6.87;3.30;;;;;;;16.35;75.01;100931.88;5049919;28;20202;-81
2021/08/14 04:52:55;;;;;;;9.00;2.37;;;;;;;16.34;75.60;100940.72;5050092;28;20233;-80
2021/08/14 04:55:22;;;;;;;5.10;2.33;;;;;;;16.31;75.58;100933.75;5050303;28;20671;-79
2021/08/14 04:57:48;;;;;;;3.80;2.40;;;;;;;16.31;74.98;100935.53;5050927;28;20292;-79
2021/08/14 05:00:15;;;;;;;3.80;2.63;;;;;;;16.30;75.59;100926.78;5050575;28;20259;-79
2021/08/14 05:02:42;;;;;;;5.23;2.60;;;;;;;16.34;75.17;100933.66;5049896;28;20296;-77
2021/08/14 05:05:09;;;;;;;5.13;3.07;;;;;;;16.41;74.86;100944.84;5050509;28;20749;-78
2021/08/14 05:07:36;;;;;;;6.03;2.50;;;;;;;16.38;75.59;100921.25;5049046;28;20712;-78
2021/08/14 05:10:04;;;;;;;3.80;2.60;;;;;;;16.46;75.68;100933.22;5050152;28;20217;-79
2021/08/14 05:12:31;;;;;;;5.73;2.37;;;;;;;16.49;75.76;100927.00;5050084;28;20206;-78
2021/08/14 05:14:57;;;;;;;4.33;2.90;;;;;;;16.58;74.75;100960.91;5054452;28;20211;-78
2021/08/14 05:17:24;;;;;;;3.57;3.20;;;;;;;16.61;75.09;100947.66;5054645;28;20223;-78
2021/08/14 05:19:50;;;;;;;4.17;2.93;;;;;;;16.66;74.91;100965.91;5054560;28;20209;-78
2021/08/14 05:22:17;;;;;;;2.97;2.53;;;;;;;16.64;76.11;100918.53;5054402;28;20207;-77
2021/08/14 05:24:44;;;;;;;4.33;2.97;;;;;;;16.66;76.71;100914.06;5054114;28;20203;-78
2021/08/14 05:27:12;;;;;;;4.27;2.70;;;;;;;16.71;77.25;100887.53;5053254;28;20291;-79
2021/08/14 05:29:39;;;;;;;5.10;2.70;;;;;;;16.78;76.67;100910.09;5052712;28;20203;-77
2021/08/14 05:32:07;;;;;;;5.00;2.27;;;;;;;16.79;76.83;100908.34;5053427;28;20210;-79
2021/08/14 05:34:33;;;;;;;5.70;2.47;;;;;;;16.80;77.39;100876.63;5054308;28;20234;-78
2021/08/14 05:37:00;;;;;;;5.33;2.40;;;;;;;16.82;77.09;100884.53;5053253;28;20272;-77
2021/08/14 05:39:26;;;;;;;6.57;2.80;;;;;;;16.85;77.26;100887.06;5053235;28;20205;-77
2021/08/14 05:41:53;;;;;;;5.90;2.90;;;;;;;16.86;78.32;100859.75;5052936;28;20216;-78
2021/08/14 05:44:21;;;;;;;4.37;2.50;;;;;;;16.86;77.65;100865.88;5054629;28;20227;-79
2021/08/14 05:46:48;;;;;;;3.10;2.13;;;;;;;16.91;77.91;100859.56;5054945;28;20226;-77
2021/08/14 05:49:15;;;;;;;4.03;2.30;;;;;;;16.97;78.22;100847.03;5054891;28;20267;-78
2021/08/14 05:51:42;;;;;;;4.07;2.63;;;;;;;17.00;77.39;100865.34;5055195;28;20211;-79
2021/08/14 05:54:08;;;;;;;4.10;2.50;;;;;;;17.03;77.27;100867.88;5054438;28;20226;-78
2021/08/14 05:56:35;;;;;;;3.13;2.20;;;;;;;17.12;78.27;100840.28;5055407;28;20202;-79
2021/08/14 05:59:02;;;;;;;5.93;2.93;;;;;;;17.09;77.48;100855.38;5053848;28;20216;-82
2021/08/14 06:01:30;;;;;;;8.73;2.67;;;;;;;17.09;76.48;100903.72;5053683;28;20211;-81
2021/08/14 06:03:57;;;;;;;5.13;2.87;;;;;;;17.11;74.63;100974.88;5053587;28;20623;-78
2021/08/14 06:06:23;;;;;;;3.60;2.80;;;;;;;17.20;75.50;100962.19;5053734;28;20295;-80
2021/08/14 06:08:49;;;;;;;4.47;3.00;;;;;;;17.25;76.56;100889.00;5053238;28;20207;-79
2021/08/14 06:11:16;;;;;;;6.70;2.97;;;;;;;17.25;74.40;100993.69;5053059;28;20199;-80
2021/08/14 06:13:42;;;;;;;3.33;2.43;;;;;;;17.28;75.61;100956.63;5052763;28;20372;-78
2021/08/14 06:16:12;;;;;;;6.67;3.30;;;;;;;17.37;74.52;100976.53;5053361;28;20196;-78
2021/08/14 06:18:41;;;;;;;6.23;3.60;;;;;;;17.44;74.10;100994.72;5053850;28;20210;-78
2021/08/14 06:21:08;;;;;;;4.47;2.83;;;;;;;17.51;73.35;101029.63;5052768;28;20300;-78
2021/08/14 06:23:34;;;;;;;6.77;3.10;;;;;;;17.54;73.79;101004.88;5053901;28;20224;-83
2021/08/14 06:26:01;;;;;;;7.40;3.17;;;;;;;17.56;73.65;101006.56;5052836;28;20216;-79
2021/08/14 06:28:28;;;;;;;3.80;2.30;;;;;;;17.59;72.81;101032.84;5053889;28;20215;-79
2021/08/14 06:30:54;;;;;;;4.00;2.70;;;;;;;17.71;72.52;101036.78;5053876;28;20212;-79
2021/08/14 06:33:20;;;;;;;6.17;2.83;;;;;;;17.80;74.33;101003.84;5052602;28;20228;-78
2021/08/14 06:35:48;;;;;;;5.97;2.90;;;;;;;17.85;73.76;101001.94;5053072;28;20204;-78
2021/08/14 06:38:15;;;;;;;5.67;2.80;;;;;;;17.90;73.53;101009.66;5052559;28;20207;-77
2021/08/14 06:40:41;;;;;;;5.37;3.27;;;;;;;17.91;71.59;101077.44;5051990;28;20216;-78
2021/08/14 06:43:08;;;;;;;7.27;3.17;;;;;;;17.96;69.31;101147.66;5053076;28;20798;-77
2021/08/14 06:45:34;;;;;;;6.33;3.20;;;;;;;17.99;70.09;101138.75;5052504;28;20211;-77
2021/08/14 06:48:01;;;;;;;4.07;2.47;;;;;;;18.03;70.90;101096.28;5052089;28;20717;-79
2021/08/14 06:50:27;;;;;;;5.63;2.50;;;;;;;18.08;68.38;101180.69;5052650;28;20199;-77
2021/08/14 06:52:55;;;;;;;2.80;2.33;;;;;;;18.10;68.35;101207.03;5052798;28;20238;-77
2021/08/14 06:55:22;;;;;;;6.20;2.93;;;;;;;18.21;68.71;101173.97;5050133;28;20204;-77
2021/08/14 06:57:48;;;;;;;6.50;2.90;;;;;;;18.34;68.25;101182.31;5050805;28;20211;-78
2021/08/14 07:00:16;;;;;;;5.03;2.70;;;;;;;18.37;67.88;101202.47;5051133;28;20569;-78
2021/08/14 07:02:43;;;;;;;4.87;2.80;;;;;;;18.41;66.76;101247.25;5049596;28;20306;-77
2021/08/14 07:05:11;;;;;;;8.87;2.93;;;;;;;18.46;66.26;101274.34;5049566;28;20220;-76
2021/08/14 07:07:37;;;;;;;10.37;3.07;;;;;;;18.53;66.42;101259.13;5049560;28;20644;-77
2021/08/14 07:10:07;;;;;;;6.83;2.70;;;;;;;18.54;64.37;101334.88;5050104;28;20208;-76
2021/08/14 07:12:33;;;;;;;7.37;2.70;;;;;;;18.64;64.24;101333.59;5049750;28;20212;-76
2021/08/14 07:15:00;;;;;;;6.17;2.73;;;;;;;18.69;63.67;101349.31;5050274;28;20204;-77
2021/08/14 07:17:26;;;;;;;5.73;2.60;;;;;;;18.72;63.83;101358.88;5049531;28;20683;-76
2021/08/14 07:19:53;;;;;;;5.90;2.60;;;;;;;18.77;64.52;101318.13;5049492;28;20266;-77
2021/08/14 07:22:20;;;;;;;4.30;3.00;;;;;;;18.82;63.84;101337.34;5049295;28;20625;-77
2021/08/14 07:24:46;;;;;;;5.67;2.70;;;;;;;18.89;65.68;101308.00;5049836;28;20217;-76
2021/08/14 07:27:14;;;;;;;8.77;3.33;;;;;;;18.90;64.08;101337.03;5049122;28;20298;-77
2021/08/14 07:29:40;;;;;;;5.50;2.93;;;;;;;18.89;62.37;101409.41;5048528;28;20208;-77
2021/08/14 07:32:07;;;;;;;5.90;2.83;;;;;;;18.97;62.55;101396.75;5049234;28;20262;-76
2021/08/14 07:34:34;;;;;;;4.63;2.20;;;;;;;19.07;62.24;101388.44;5049086;28;20224;-76
2021/08/14 07:37:00;;;;;;;5.93;2.67;;;;;;;19.09;61.78;101423.63;5047306;28;20212;-77
2021/08/14 07:39:27;;;;;;;5.87;2.50;;;;;;;19.01;61.55;101450.41;5049496;28;20216;-76
2021/08/14 07:41:53;;;;;;;7.80;2.83;;;;;;;19.12;62.00;101412.94;5049288;28;20212;-76
2021/08/14 07:44:21;;;;;;;7.90;2.87;;;;;;;19.21;61.78;101424.03;5049421;28;20232;-76
2021/08/14 07:46:47;;;;;;;5.17;2.40;;;;;;;19.37;62.42;101405.75;5048372;28;20354;-77
2021/08/14 07:49:14;;;;;;;5.67;2.80;;;;;;;19.47;61.99;101431.88;5049147;28;20206;-76
2021/08/14 07:51:40;;;;;;;4.20;2.73;;;;;;;19.40;61.07;101461.22;5049022;28;20210;-76
2021/08/14 07:54:07;;;;;;;6.83;3.10;;;;;;;19.41;61.30;101438.28;5049011;28;20224;-77
2021/08/14 07:56:33;;;;;;;8.23;2.87;;;;;;;19.52;61.43;101445.78;5049280;28;20205;-77
2021/08/14 07:59:00;;;;;;;4.53;3.47;;;;;;;19.51;61.16;101450.22;5048796;28;20678;-77
2021/08/14 08:01:27;;;;;;;6.50;3.00;;;;;;;19.59;61.25;101429.56;5049377;28;20200;-77
2021/08/14 08:03:54;;;;;;;5.03;3.43;;;;;;;19.63;60.78;101456.81;5048244;28;20232;-77
2021/08/14 08:06:21;;;;;;;6.17;3.13;;;;;;;19.75;61.16;101429.00;5049041;28;20205;-77
2021/08/14 08:08:47;;;;;;;4.63;3.43;;;;;;;19.69;60.53;101459.19;5049502;28;20255;-76
2021/08/14 08:11:14;;;;;;;6.00;3.53;;;;;;;19.83;61.47;101411.81;5048999;28;20235;-77
2021/08/14 08:13:40;;;;;;;5.37;3.20;;;;;;;19.89;62.02;101433.72;5048790;28;20228;-76
2021/08/14 08:16:07;;;;;;;5.40;3.97;;;;;;;19.98;61.93;101413.00;5048952;28;20201;-76
2021/08/14 08:18:35;;;;;;;4.87;3.97;;;;;;;20.09;62.56;101423.13;5049240;28;20248;-77
2021/08/14 08:21:01;;;;;;;5.83;4.20;;;;;;;20.02;60.24;101451.69;5048800;28;20204;-77
2021/08/14 08:23:28;;;;;;;7.47;4.47;;;;;;;20.11;63.64;101347.03;5048918;28;20232;-76
2021/08/14 08:25:54;;;;;;;7.10;4.00;;;;;;;19.99;60.71;101430.59;5048717;28;20255;-77
2021/08/14 08:28:21;;;;;;;8.23;5.57;;;;;;;19.92;60.79;101430.91;5048478;28;20221;-76
2021/08/14 08:30:48;;;;;;;7.90;5.10;;;;;;;20.01;62.32;101394.28;5046395;28;20306;-76
2021/08/14 08:33:15;;;;;;;5.87;5.07;;;;;;;19.91;61.24;101414.16;5044199;28;20228;-76
2021/08/14 08:35:43;;;;;;;5.60;4.40;;;;;;;19.92;62.33;101368.19;5046280;28;20266;-77
2021/08/14 08:38:09;;;;;;;8.77;5.50;;;;;;;19.87;62.68;101369.31;5047962;28;20211;-77
2021/08/14 08:40:38;;;;;;;7.97;5.37;;;;;;;19.79;62.20;101389.03;5047149;28;20212;-76
2021/08/14 08:43:05;;;;;;;6.90;4.90;;;;;;;19.68;62.57;101370.03;5046278;28;20223;-77
2021/08/14 08:45:32;;;;;;;6.47;5.00;;;;;;;19.73;63.22;101346.91;5047651;28;20209;-77
2021/08/14 08:47:59;;;;;;;5.77;5.17;;;;;;;19.63;62.83;101354.34;5046740;28;20263;-76
2021/08/14 08:50:28;;;;;;;7.23;5.13;;;;;;;19.65;62.86;101343.69;5048603;28;20669;-76
2021/08/14 08:52:56;;;;;;;7.37;4.40;;;;;;;19.77;64.17;101274.31;5047899;28;20642;-76
2021/08/14 08:55:24;;;;;;;5.70;4.67;;;;;;;19.78;63.09;101325.50;5049030;28;20215;-77
2021/08/14 08:57:51;;;;;;;9.47;6.03;;;;;;;19.85;61.69;101382.63;5048950;28;20263;-76
2021/08/14 09:00:18;;;;;;;17.00;7.40;;;;;;;19.88;61.06;101418.72;5048830;28;20208;-77
2021/08/14 09:02:46;;;;;;;8.17;6.90;;;;;;;19.93;60.30;101424.69;5047888;28;20330;-77
2021/08/14 09:05:15;;;;;;;7.30;6.50;;;;;;;19.97;60.75;101416.53;5048732;28;20236;-77
2021/08/14 09:07:42;;;;;;;11.33;6.43;;;;;;;20.09;61.61;101374.53;5048631;28;20228;-77
2021/08/14 09:10:12;;;;;;;8.40;6.80;;;;;;;20.20;60.50;101425.31;5049409;28;21103;-77
2021/08/14 09:12:41;;;;;;;9.70;7.53;;;;;;;20.25;59.28;101468.38;5048882;28;20248;-77
2021/08/14 09:15:14;;;;;;;7.90;6.63;;;;;;;20.27;59.66;101460.38;5048950;28;20690;-77
2021/08/14 09:17:41;;;;;;;8.70;6.50;;;;;;;20.35;60.02;101432.56;5048888;28;20247;-77
2021/08/14 09:20:11;;;;;;;11.40;5.77;;;;;;;20.52;59.77;101450.41;5048794;28;20640;-77
2021/08/14 09:22:37;;;;;;;8.17;6.33;;;;;;;20.65;58.70;101456.06;5047988;28;20270;-77
2021/08/14 09:25:13;;;;;;;7.67;5.73;;;;;;;20.79;59.93;101434.19;5049037;28;20254;-77
2021/08/14 09:27:54;;;;;;;6.03;5.17;;;;;;;20.98;56.46;101532.44;5048658;28;20739;-78
2021/08/14 09:30:21;;;;;;;9.50;5.60;;;;;;;21.07;55.42;101597.53;5048229;28;20211;-77
2021/08/14 09:33:06;;;;;;;8.47;5.17;;;;;;;21.16;54.94;101629.84;5048122;28;20276;-77
2021/08/14 09:35:34;;;;;;;6.80;5.67;;;;;;;21.22;54.84;101632.22;5048073;28;20295;-77
2021/08/14 09:38:04;;;;;;;6.60;4.97;;;;;;;21.27;54.20;101641.78;5048621;28;20217;-77
2021/08/14 09:40:36;;;;;;;5.53;5.03;;;;;;;21.37;53.76;101654.59;5048705;28;20288;-78
2021/08/14 09:43:03;;;;;;;7.53;4.67;;;;;;;21.45;54.53;101648.97;5050280;28;20316;-78
2021/08/14 09:45:30;;;;;;;7.30;5.20;;;;;;;21.50;53.82;101657.59;5050591;28;20224;-77
2021/08/14 09:47:56;;;;;;;6.47;4.90;;;;;;;21.64;54.85;101617.09;5049777;28;20717;-78
2021/08/14 09:50:33;;;;;;;6.07;5.47;;;;;;;21.68;54.07;101645.25;5049695;28;20592;-77
2021/08/14 09:53:11;;;;;;;6.37;5.50;;;;;;;21.79;54.17;101652.75;5048770;28;20311;-78
2021/08/14 09:55:39;;;;;;;6.57;5.40;;;;;;;21.65;53.34;101669.31;5049890;28;20242;-77
2021/08/14 09:58:09;;;;;;;6.73;4.87;;;;;;;21.66;55.01;101620.53;5049647;28;20205;-78
2021/08/14 10:00:35;;;;;;;8.90;5.40;;;;;;;21.67;54.90;101605.47;5051037;28;20662;-78
2021/08/14 10:03:03;;;;;;;7.30;5.43;;;;;;;21.74;54.55;101630.81;5053448;28;20282;-76
2021/08/14 10:05:32;;;;;;;7.07;5.20;;;;;;;21.76;54.30;101631.59;5054292;28;20204;-76
2021/08/14 10:07:59;;;;;;;8.40;4.73;;;;;;;21.82;54.68;101610.03;5052774;28;20255;-78
2021/08/14 10:10:25;;;;;;;7.00;4.70;;;;;;;21.89;54.70;101632.75;5053596;28;20210;-77
2021/08/14 10:12:54;;;;;;;8.03;5.47;;;;;;;21.91;53.59;101660.13;5053586;28;20284;-77
2021/08/14 10:15:20;;;;;;;7.03;5.50;;;;;;;21.96;53.77;101657.25;5054543;28;20208;-77
2021/08/14 10:17:47;;;;;;;7.43;5.50;;;;;;;21.93;53.82;101644.13;5055244;28;20212;-77
2021/08/14 10:20:14;;;;;;;7.83;5.23;;;;;;;22.07;53.84;101622.19;5054468;28;20621;-78
2021/08/14 10:22:41;;;;;;;11.50;10.30;;;;;;;21.93;52.68;101666.25;5053989;28;20225;-77
2021/08/14 10:25:16;;;;;;;6.80;6.20;;;;;;;21.97;53.22;101654.53;5053890;28;20323;-79
2021/08/14 10:27:56;;;;;;;8.57;7.77;;;;;;;22.07;53.68;101635.47;5053120;28;20228;-78
2021/08/14 10:30:36;;;;;;;7.30;5.37;;;;;;;21.97;53.64;101654.53;5054255;28;20581;-79
2021/08/14 10:33:03;;;;;;;7.50;6.70;;;;;;;22.10;54.17;101609.59;5052659;28;20225;-78
2021/08/14 10:35:37;;;;;;;19.10;17.00;;;;;;;22.16;54.55;101601.34;5053876;28;20288;-77
2021/08/14 10:38:04;;;;;;;10.33;9.23;;;;;;;22.22;54.83;101581.56;5053656;28;20206;-78
2021/08/14 10:41:04;;;;;;;7.00;6.17;;;;;;;22.43;53.03;101638.16;5054184;28;20208;-79
2021/08/14 10:44:04;;;;;;;5.57;4.87;;;;;;;22.47;51.62;101671.66;4991431;28;20270;-79
2021/08/14 10:46:41;;;;;;;6.17;4.53;;;;;;;22.53;52.93;101650.06;4987879;28;20737;-79
2021/08/14 10:49:09;;;;;;;7.30;5.00;;;;;;;22.40;52.59;101633.88;5036230;28;20225;-78
2021/08/14 10:52:10;;;;;;;10.60;9.60;;;;;;;22.28;53.11;101625.63;5052414;28;20265;-78
2021/08/14 10:55:12;;;;;;;7.77;6.77;;;;;;;22.41;53.84;101597.47;4990622;28;20231;-78
2021/08/14 10:57:49;;;;;;;6.90;6.20;;;;;;;22.55;52.92;101626.06;5052978;28;20209;-78
2021/08/14 11:00:32;;;;;;;5.70;5.03;;;;;;;22.52;52.69;101627.06;5051191;28;20204;-77
2021/08/14 11:03:01;;;;;;;5.50;5.00;;;;;;;22.66;51.88;101626.38;4352171;28;10000831;-78
2021/08/14 11:05:28;;;;;;;6.20;5.50;;;;;;;22.87;52.30;101626.22;5049309;28;20209;-77
2021/08/14 11:07:55;;;;;;;5.93;4.63;;;;;;;23.02;51.38;101640.53;5049693;28;20309;-78
2021/08/14 11:10:33;;;;;;;6.90;4.93;;;;;;;23.32;51.14;101659.41;5050251;28;20567;-78
2021/08/14 11:12:59;;;;;;;4.40;3.77;;;;;;;23.27;49.85;101715.63;5049751;28;20225;-79
2021/08/14 11:15:28;;;;;;;7.63;4.60;;;;;;;23.30;49.92;101699.44;5050351;28;20882;-78
2021/08/14 11:17:58;;;;;;;6.47;4.67;;;;;;;23.50;50.85;101679.75;5049254;28;20207;-78
2021/08/14 11:20:37;;;;;;;6.37;4.77;;;;;;;23.55;49.84;101714.16;5049514;28;20203;-77
2021/08/14 11:23:20;;;;;;;6.90;5.20;;;;;;;23.52;50.04;101715.16;5049624;28;20251;-77
2021/08/14 11:25:47;;;;;;;5.90;4.73;;;;;;;23.70;50.42;101678.66;5049235;28;20753;-77
2021/08/14 11:28:20;;;;;;;5.90;3.90;;;;;;;23.75;49.83;101705.94;5049898;28;20259;-77